createdAt,value
2023-03-15T00:02:03.292Z,4.70
2023-03-15T00:04:32.013Z,4.20
2023-03-15T00:06:58.769Z,5.10
2023-03-15T00:09:25.461Z,4.70
2023-03-15T00:11:53.959Z,3.40
2023-03-15T00:14:21.168Z,4.20
2023-03-15T00:16:48.147Z,4.30
2023-03-15T00:19:18.651Z,3.40
2023-03-15T00:21:45.346Z,5.20
2023-03-15T00:24:12.210Z,3.70
2023-03-15T00:26:40.197Z,4.00
2023-03-15T00:29:08.071Z,4.10
2023-03-15T00:31:37.064Z,3.30
2023-03-15T00:34:03.911Z,3.50
2023-03-15T00:36:31.351Z,4.10
2023-03-15T00:38:58.820Z,4.20
2023-03-15T00:41:26.034Z,4.10
2023-03-15T00:43:54.032Z,4.40
2023-03-15T00:46:20.696Z,3.80
2023-03-15T00:48:50.957Z,4.40
2023-03-15T00:51:23.174Z,4.80
2023-03-15T00:53:51.113Z,4.00
2023-03-15T00:56:26.558Z,4.70
2023-03-15T00:58:55.286Z,4.30
2023-03-15T01:01:25.458Z,4.60
2023-03-15T01:03:54.033Z,4.30
2023-03-15T01:06:25.551Z,3.90
2023-03-15T01:08:53.908Z,5.10
2023-03-15T01:11:24.318Z,4.70
2023-03-15T01:13:52.152Z,4.40
2023-03-15T01:16:19.109Z,4.70
2023-03-15T01:18:45.931Z,4.30
2023-03-15T01:21:13.920Z,4.70
2023-03-15T01:23:40.941Z,4.60
2023-03-15T01:26:09.737Z,4.10
2023-03-15T01:28:40.006Z,4.00
2023-03-15T01:31:13.842Z,4.80
2023-03-15T01:33:42.720Z,5.00
2023-03-15T01:36:10.481Z,4.70
2023-03-15T01:38:38.791Z,4.80
2023-03-15T01:41:06.003Z,4.80
2023-03-15T01:43:33.142Z,4.20
2023-03-15T01:46:25.256Z,5.00
2023-03-15T01:49:15.161Z,4.30
2023-03-15T01:51:58.615Z,4.30
2023-03-15T01:54:32.858Z,4.40
2023-03-15T01:57:09.382Z,3.70
2023-03-15T01:59:58.150Z,3.90
2023-03-15T02:02:25.890Z,5.00
2023-03-15T02:04:58.485Z,5.10
2023-03-15T02:07:26.972Z,4.60
2023-03-15T02:09:59.691Z,5.00
2023-03-15T02:12:27.126Z,3.80
2023-03-15T02:14:53.840Z,3.60
2023-03-15T02:17:22.016Z,5.10
2023-03-15T02:19:54.591Z,5.60
2023-03-15T02:22:41.233Z,4.30
2023-03-15T02:25:41.994Z,4.20
2023-03-15T02:28:10.668Z,4.90
2023-03-15T02:30:37.335Z,5.50
2023-03-15T02:33:05.789Z,5.70
2023-03-15T02:35:32.934Z,3.80
2023-03-15T02:38:04.142Z,4.20
2023-03-15T02:40:31.247Z,6.50
2023-03-15T02:43:04.917Z,5.70
2023-03-15T02:45:33.299Z,5.70
2023-03-15T02:48:00.818Z,6.70
2023-03-15T02:50:28.552Z,6.50
2023-03-15T02:52:55.267Z,5.60
2023-03-15T02:55:22.403Z,6.70
2023-03-15T02:57:49.264Z,6.30
2023-03-15T03:00:16.633Z,4.50
2023-03-15T03:02:48.591Z,6.20
2023-03-15T03:05:15.947Z,5.30
2023-03-15T03:07:42.587Z,6.20
2023-03-15T03:10:11.272Z,6.80
2023-03-15T03:12:46.866Z,6.00
2023-03-15T03:15:14.220Z,5.50
2023-03-15T03:17:42.501Z,6.00
2023-03-15T03:20:10.972Z,6.40
2023-03-15T03:22:44.163Z,5.60
2023-03-15T03:25:11.581Z,7.70
2023-03-15T03:27:40.256Z,7.30
2023-03-15T03:30:11.637Z,6.80
2023-03-15T03:32:40.584Z,7.60
2023-03-15T03:35:08.596Z,7.30
2023-03-15T03:37:36.275Z,7.90
2023-03-15T03:40:20.384Z,7.70
2023-03-15T03:42:47.165Z,7.00
2023-03-15T03:45:16.672Z,6.60
2023-03-15T03:47:44.232Z,7.40
2023-03-15T03:50:11.643Z,6.80
2023-03-15T03:52:44.716Z,8.00
2023-03-15T03:55:17.042Z,6.90
2023-03-15T03:57:43.854Z,8.40
2023-03-15T04:00:14.147Z,9.00
2023-03-15T04:05:13.910Z,9.70
2023-03-15T04:07:43.162Z,9.20
2023-03-15T04:10:14.148Z,9.60
2023-03-15T04:12:43.594Z,10.00
2023-03-15T04:15:11.397Z,9.50
2023-03-15T04:17:39.223Z,9.70
2023-03-15T04:20:08.411Z,10.40
2023-03-15T04:22:38.760Z,10.10
2023-03-15T04:25:25.915Z,10.10
2023-03-15T04:28:13.449Z,9.70
2023-03-15T04:31:09.902Z,11.30
2023-03-15T04:33:36.997Z,9.70
2023-03-15T04:36:24.007Z,7.10
2023-03-15T04:39:10.189Z,9.10
2023-03-15T04:41:57.415Z,10.70
2023-03-15T04:44:40.230Z,10.40
2023-03-15T04:47:25.972Z,10.20
2023-03-15T04:50:12.944Z,8.60
2023-03-15T04:52:53.603Z,9.30
2023-03-15T04:55:40.409Z,9.00
2023-03-15T04:58:37.754Z,10.90
2023-03-15T05:01:29.629Z,10.60
2023-03-15T05:04:16.914Z,11.20
2023-03-15T05:07:08.041Z,10.40
2023-03-15T05:09:53.905Z,11.50
2023-03-15T05:12:23.844Z,12.00
2023-03-15T05:15:10.260Z,9.00
2023-03-15T05:17:57.707Z,9.40
2023-03-15T05:20:43.159Z,10.60
2023-03-15T05:23:28.308Z,10.50
2023-03-15T05:26:30.361Z,9.70
2023-03-15T05:29:15.989Z,10.40
2023-03-15T05:32:07.693Z,9.80
2023-03-15T05:34:57.660Z,8.70
2023-03-15T05:37:54.983Z,10.00
2023-03-15T05:40:52.271Z,9.10
2023-03-15T05:43:37.408Z,7.80
2023-03-15T05:46:23.275Z,9.50
2023-03-15T05:49:09.016Z,9.20
2023-03-15T05:51:54.704Z,9.60
2023-03-15T05:54:37.657Z,9.20
2023-03-15T05:57:27.201Z,10.50
2023-03-15T06:00:18.537Z,9.50
2023-03-15T06:02:48.645Z,10.20
2023-03-15T06:05:44.761Z,9.30
2023-03-15T06:08:14.898Z,9.00
2023-03-15T06:10:44.402Z,11.20
2023-03-15T06:13:11.614Z,10.60
2023-03-15T06:15:39.702Z,9.40
2023-03-15T06:18:07.879Z,11.90
2023-03-15T06:20:37.261Z,9.40
2023-03-15T06:23:08.443Z,9.80
2023-03-15T06:25:47.072Z,10.20
2023-03-15T06:28:13.785Z,11.60
2023-03-15T06:30:51.137Z,13.70
2023-03-15T06:33:20.926Z,13.50
2023-03-15T06:35:47.958Z,11.50
2023-03-15T06:38:15.260Z,13.50
2023-03-15T06:40:43.371Z,12.20
2023-03-15T06:43:18.706Z,12.20
2023-03-15T06:45:45.997Z,13.30
2023-03-15T06:48:13.749Z,12.60
2023-03-15T06:50:47.261Z,12.60
2023-03-15T06:53:16.188Z,12.70
2023-03-15T06:55:46.625Z,12.80
2023-03-15T06:58:14.355Z,11.80
2023-03-15T07:00:41.314Z,13.30
2023-03-15T07:03:08.144Z,12.00
2023-03-15T07:05:36.669Z,11.60
2023-03-15T07:08:10.686Z,11.90
2023-03-15T07:10:38.407Z,10.70
2023-03-15T07:13:06.316Z,10.60
2023-03-15T07:15:36.413Z,10.30
2023-03-15T07:18:03.187Z,10.90
2023-03-15T07:20:30.790Z,10.60
2023-03-15T07:22:58.632Z,9.10
2023-03-15T07:25:25.703Z,11.40
2023-03-15T07:27:52.813Z,10.70
2023-03-15T07:30:19.884Z,11.50
2023-03-15T07:32:46.706Z,11.00
2023-03-15T07:35:21.449Z,10.00
2023-03-15T07:37:49.005Z,11.30
2023-03-15T07:40:15.839Z,9.80
2023-03-15T07:42:43.296Z,9.80
2023-03-15T07:45:11.012Z,10.70
2023-03-15T07:47:42.073Z,10.50
2023-03-15T07:50:16.891Z,9.50
2023-03-15T07:52:44.434Z,9.20
2023-03-15T07:55:12.490Z,9.50
2023-03-15T07:57:39.338Z,9.40
2023-03-15T08:00:13.035Z,8.70
2023-03-15T08:02:40.809Z,8.70
2023-03-15T08:05:08.067Z,7.90
2023-03-15T08:07:36.019Z,8.60
2023-03-15T08:10:04.850Z,8.00
2023-03-15T08:12:34.575Z,7.90
2023-03-15T08:15:01.205Z,7.90
2023-03-15T08:17:35.407Z,8.10
2023-03-15T08:20:10.945Z,7.30
2023-03-15T08:22:43.949Z,7.90
2023-03-15T08:27:38.406Z,9.00
2023-03-15T08:30:05.687Z,8.70
2023-03-15T08:32:33.395Z,8.70
2023-03-15T08:35:00.446Z,8.20
2023-03-15T08:37:29.053Z,8.10
2023-03-15T08:39:57.412Z,10.10
2023-03-15T08:42:24.428Z,9.00
2023-03-15T08:44:51.684Z,8.60
2023-03-15T08:47:18.348Z,8.30
2023-03-15T08:49:45.058Z,8.40
2023-03-15T08:52:12.931Z,6.90
2023-03-15T08:54:40.686Z,7.60
2023-03-15T08:57:07.968Z,7.90
2023-03-15T08:59:34.562Z,6.40
2023-03-15T09:02:01.918Z,8.20
2023-03-15T09:04:30.965Z,8.70
2023-03-15T09:06:57.874Z,8.10
2023-03-15T09:09:27.569Z,8.30
2023-03-15T09:11:57.884Z,7.60
2023-03-15T09:14:24.523Z,6.30
2023-03-15T09:16:53.859Z,7.70
2023-03-15T09:19:21.000Z,6.50
2023-03-15T09:21:48.089Z,6.00
2023-03-15T09:24:14.682Z,6.40
2023-03-15T09:26:41.850Z,5.60
2023-03-15T09:29:09.260Z,6.00
2023-03-15T09:31:35.967Z,6.60
2023-03-15T09:34:02.874Z,6.00
2023-03-15T09:38:29.593Z,6.20
2023-03-15T09:41:01.677Z,6.10
2023-03-15T09:43:43.142Z,6.70
2023-03-15T09:46:31.951Z,7.30
2023-03-15T09:49:22.267Z,7.10
2023-03-15T09:51:57.348Z,6.70
2023-03-15T09:54:32.303Z,6.70
2023-03-15T09:57:04.975Z,6.00
2023-03-15T09:59:35.788Z,6.30
2023-03-15T10:02:15.128Z,6.50
2023-03-15T10:04:43.629Z,6.60
2023-03-15T10:07:15.386Z,7.50
2023-03-15T10:09:44.396Z,6.60
2023-03-15T10:12:17.105Z,6.60
2023-03-15T10:15:00.904Z,6.90
2023-03-15T10:17:56.933Z,5.90
2023-03-15T10:20:27.775Z,7.00
2023-03-15T10:23:01.878Z,6.50
2023-03-15T10:25:36.240Z,6.50
2023-03-15T10:28:24.652Z,6.40
2023-03-15T10:30:52.971Z,6.10
2023-03-15T10:33:32.869Z,7.40
2023-03-15T10:36:10.902Z,6.70
2023-03-15T10:38:42.220Z,7.10
2023-03-15T10:41:15.222Z,7.10
2023-03-15T10:43:45.354Z,7.20
2023-03-15T10:46:22.115Z,6.20
2023-03-15T10:48:58.370Z,7.00
2023-03-15T10:51:33.039Z,5.70
2023-03-15T10:54:13.428Z,5.50
2023-03-15T10:57:05.198Z,5.90
2023-03-15T10:59:34.710Z,5.70
2023-03-15T11:02:11.714Z,6.10
2023-03-15T11:04:42.147Z,5.50
2023-03-15T11:07:13.569Z,5.40
2023-03-15T11:10:05.262Z,5.60
2023-03-15T11:12:34.898Z,6.40
2023-03-15T11:15:14.001Z,5.70
2023-03-15T11:17:47.808Z,5.90
2023-03-15T11:20:36.580Z,6.30
2023-03-15T11:23:33.913Z,5.20
2023-03-15T11:26:01.921Z,5.80
2023-03-15T11:28:35.711Z,5.50
2023-03-15T11:31:04.756Z,7.20
2023-03-15T11:33:51.945Z,6.60
2023-03-15T11:36:22.101Z,5.90
2023-03-15T11:38:54.101Z,6.50
2023-03-15T11:41:38.659Z,5.20
2023-03-15T11:44:32.237Z,6.50
2023-03-15T11:47:25.140Z,6.90
2023-03-15T11:49:54.506Z,6.80
2023-03-15T11:52:24.999Z,6.90
2023-03-15T11:54:57.805Z,6.90
2023-03-15T11:57:29.136Z,7.30
2023-03-15T12:00:46.366Z,6.80
2023-03-15T12:03:28.451Z,7.30
2023-03-15T12:06:02.886Z,7.30
2023-03-15T12:08:36.787Z,8.00
2023-03-15T12:11:33.865Z,7.10
2023-03-15T12:14:03.452Z,7.00
2023-03-15T12:16:35.534Z,7.50
2023-03-15T12:19:10.525Z,6.70
2023-03-15T12:21:40.063Z,8.00
2023-03-15T12:24:36.114Z,7.50
2023-03-15T12:27:15.622Z,8.10
2023-03-15T12:29:50.990Z,8.20
2023-03-15T12:32:19.238Z,9.70
2023-03-15T12:34:54.191Z,8.30
2023-03-15T12:37:37.781Z,9.30
2023-03-15T12:40:15.551Z,8.00
2023-03-15T12:42:44.016Z,7.60
2023-03-15T12:45:15.459Z,8.60
2023-03-15T12:50:44.019Z,7.00
2023-03-15T12:53:30.876Z,8.70
2023-03-15T12:56:18.697Z,8.60
2023-03-15T12:58:53.512Z,8.20
2023-03-15T13:01:25.859Z,8.70
2023-03-15T13:03:56.546Z,7.90
2023-03-15T13:06:39.931Z,7.40
2023-03-15T13:09:26.967Z,8.30
2023-03-15T13:12:01.554Z,7.30
2023-03-15T13:14:43.802Z,7.60
2023-03-15T13:17:33.495Z,8.40
2023-03-15T13:20:23.447Z,8.50
2023-03-15T13:23:11.108Z,7.00
2023-03-15T13:25:44.974Z,8.80
2023-03-15T13:28:23.688Z,8.50
2023-03-15T13:30:53.680Z,9.00
2023-03-15T13:33:28.588Z,8.20
2023-03-15T13:36:15.417Z,9.00
2023-03-15T13:38:44.962Z,9.00
2023-03-15T13:41:26.573Z,8.40
2023-03-15T13:43:56.787Z,8.70
2023-03-15T13:46:27.147Z,9.00
2023-03-15T13:48:56.440Z,9.80
2023-03-15T13:51:35.347Z,9.90
2023-03-15T13:54:06.109Z,9.00
2023-03-15T13:56:48.963Z,9.70
2023-03-15T13:59:17.915Z,6.80
2023-03-15T14:01:46.363Z,9.30
2023-03-15T14:04:17.415Z,8.60
2023-03-15T14:06:48.354Z,9.90
2023-03-15T14:09:21.657Z,9.60
2023-03-15T14:12:03.847Z,13.10
2023-03-15T14:14:36.226Z,13.30
2023-03-15T14:17:27.496Z,16.50
2023-03-15T14:20:07.006Z,13.90
2023-03-15T14:22:36.124Z,16.00
2023-03-15T14:25:21.470Z,14.40
2023-03-15T14:27:50.621Z,13.00
2023-03-15T14:30:23.777Z,17.50
2023-03-15T14:32:57.374Z,16.60
2023-03-15T14:35:32.338Z,15.80
2023-03-15T14:38:08.312Z,16.10
2023-03-15T14:40:38.681Z,18.00
2023-03-15T14:43:08.982Z,17.50
2023-03-15T14:45:38.545Z,16.30
2023-03-15T14:50:40.029Z,16.40
2023-03-15T14:53:09.099Z,17.70
2023-03-15T14:55:38.147Z,15.80
2023-03-15T14:58:17.467Z,19.10
2023-03-15T15:00:51.036Z,17.30
2023-03-15T15:03:32.505Z,16.20
2023-03-15T15:06:01.146Z,17.70
2023-03-15T15:08:30.015Z,18.20
2023-03-15T15:10:58.207Z,18.30
2023-03-15T15:13:29.588Z,16.20
2023-03-15T15:15:58.189Z,16.20
2023-03-15T15:18:31.157Z,15.60
2023-03-15T15:21:07.560Z,47.70
2023-03-15T15:23:44.499Z,47.60
2023-03-15T15:26:26.164Z,42.50
2023-03-15T15:28:57.944Z,39.70
2023-03-15T15:31:33.784Z,15.80
2023-03-15T15:34:04.004Z,14.00
2023-03-15T15:36:35.241Z,13.60
2023-03-15T15:39:06.381Z,16.20
2023-03-15T15:41:34.928Z,14.40
2023-03-15T15:44:26.283Z,17.00
2023-03-15T15:46:54.805Z,14.30
2023-03-15T15:49:23.139Z,14.90
2023-03-15T15:51:52.693Z,15.20
2023-03-15T15:54:27.588Z,14.30
2023-03-15T15:56:57.066Z,14.50
2023-03-15T15:59:25.880Z,14.80
2023-03-15T16:02:02.818Z,12.70
2023-03-15T16:04:32.976Z,14.60
2023-03-15T16:07:02.563Z,14.80
2023-03-15T16:09:31.979Z,18.80
2023-03-15T16:12:02.987Z,14.70
2023-03-15T16:14:31.175Z,14.30
2023-03-15T16:16:59.281Z,14.50
2023-03-15T16:19:27.930Z,16.50
2023-03-15T16:21:57.069Z,15.20
2023-03-15T16:24:27.823Z,17.20
2023-03-15T16:27:00.211Z,14.70
2023-03-15T16:29:38.470Z,16.70
2023-03-15T16:32:17.634Z,15.10
2023-03-15T16:34:48.486Z,18.10
2023-03-15T16:37:20.391Z,15.40
2023-03-15T16:39:50.314Z,16.40
2023-03-15T16:42:19.966Z,16.00
2023-03-15T16:44:48.461Z,18.50
2023-03-15T16:47:16.788Z,16.30
2023-03-15T16:49:45.500Z,17.70
2023-03-15T16:52:14.037Z,19.30
2023-03-15T16:54:42.235Z,18.20
2023-03-15T16:57:22.030Z,18.40
2023-03-15T16:59:51.912Z,17.30
2023-03-15T17:02:25.211Z,20.70
2023-03-15T17:04:53.933Z,19.70
2023-03-15T17:07:29.351Z,20.80
2023-03-15T17:09:57.617Z,19.20
2023-03-15T17:12:27.006Z,19.80
2023-03-15T17:14:57.008Z,19.90
2023-03-15T17:17:28.224Z,20.50
2023-03-15T17:20:13.018Z,21.60
2023-03-15T17:22:41.814Z,18.30
2023-03-15T17:25:10.737Z,20.70
2023-03-15T17:27:41.011Z,18.80
2023-03-15T17:30:27.103Z,19.80
2023-03-15T17:32:56.191Z,22.40
2023-03-15T17:35:28.071Z,18.10
2023-03-15T17:37:56.241Z,22.90
2023-03-15T17:40:26.616Z,20.50
2023-03-15T17:42:55.852Z,20.10
2023-03-15T17:45:33.408Z,20.40
2023-03-15T17:48:04.352Z,19.90
2023-03-15T17:50:33.028Z,23.80
2023-03-15T17:53:06.895Z,22.90
2023-03-15T17:55:35.263Z,23.20
2023-03-15T17:58:06.107Z,24.80
2023-03-15T18:00:34.993Z,24.90
2023-03-15T18:03:03.086Z,25.30
2023-03-15T18:05:31.224Z,24.20
2023-03-15T18:08:04.495Z,24.30
2023-03-15T18:10:37.932Z,23.80
2023-03-15T18:13:06.128Z,26.30
2023-03-15T18:15:37.742Z,27.00
2023-03-15T18:18:08.322Z,26.80
2023-03-15T18:20:37.179Z,31.00
2023-03-15T18:23:07.385Z,23.80
2023-03-15T18:25:35.805Z,53.70
2023-03-15T18:28:03.963Z,30.60
2023-03-15T18:30:32.635Z,27.40
2023-03-15T18:33:01.835Z,29.00
2023-03-15T18:35:32.176Z,28.20
2023-03-15T18:38:00.946Z,28.30
2023-03-15T18:40:30.363Z,29.30
2023-03-15T18:42:58.783Z,32.40
2023-03-15T18:45:32.163Z,28.70
2023-03-15T18:48:00.337Z,45.30
2023-03-15T18:50:30.528Z,28.50
2023-03-15T18:52:58.803Z,30.50
2023-03-15T18:55:28.610Z,26.20
2023-03-15T18:57:57.701Z,45.00
2023-03-15T19:00:36.025Z,37.70
2023-03-15T19:03:05.039Z,27.60
2023-03-15T19:05:36.259Z,31.80
2023-03-15T19:10:33.282Z,24.00
2023-03-15T19:13:04.014Z,42.00
2023-03-15T19:15:33.766Z,25.50
2023-03-15T19:18:02.169Z,27.70
2023-03-15T19:20:32.173Z,31.10
2023-03-15T19:23:01.706Z,29.10
2023-03-15T19:25:30.775Z,35.50
2023-03-15T19:28:02.357Z,27.70
2023-03-15T19:30:32.648Z,29.70
2023-03-15T19:33:01.444Z,27.50
2023-03-15T19:35:31.003Z,32.50
2023-03-15T19:38:00.900Z,31.40
2023-03-15T19:40:39.544Z,25.50
2023-03-15T19:43:10.401Z,23.60
2023-03-15T19:45:38.637Z,25.30
2023-03-15T19:48:07.137Z,23.90
2023-03-15T19:50:35.850Z,23.30
2023-03-15T19:53:11.827Z,23.40
2023-03-15T19:55:40.196Z,20.80
2023-03-15T19:58:08.604Z,23.00
2023-03-15T20:00:38.678Z,24.00
2023-03-15T20:03:06.992Z,23.00
2023-03-15T20:05:38.374Z,22.10
2023-03-15T20:08:09.773Z,22.70
2023-03-15T20:10:37.930Z,18.20
2023-03-15T20:13:06.412Z,24.30
2023-03-15T20:15:34.492Z,18.40
2023-03-15T20:18:04.217Z,25.50
2023-03-15T20:20:33.203Z,23.70
2023-03-15T20:23:01.214Z,23.80
2023-03-15T20:25:34.584Z,28.20
2023-03-15T20:28:04.342Z,28.00
2023-03-15T20:30:32.430Z,23.20
2023-03-15T20:33:01.596Z,28.90
2023-03-15T20:35:29.660Z,30.00
2023-03-15T20:38:06.681Z,31.30
2023-03-15T20:40:38.729Z,30.60
2023-03-15T20:43:12.510Z,31.80
2023-03-15T20:45:40.667Z,28.70
2023-03-15T20:48:08.801Z,28.10
2023-03-15T20:50:39.364Z,29.40
2023-03-15T20:53:07.517Z,28.40
2023-03-15T20:55:35.586Z,29.50
2023-03-15T20:58:03.723Z,29.70
2023-03-15T21:00:32.100Z,31.40
2023-03-15T21:03:02.113Z,23.90
2023-03-15T21:05:31.654Z,24.20
2023-03-15T21:08:01.408Z,28.10
2023-03-15T21:10:29.777Z,24.20
2023-03-15T21:12:58.029Z,29.80
2023-03-15T21:15:30.399Z,25.80
2023-03-15T21:17:58.992Z,25.50
2023-03-15T21:20:27.416Z,25.60
2023-03-15T21:23:01.967Z,26.80
2023-03-15T21:25:30.592Z,29.90
2023-03-15T21:27:59.218Z,29.60
2023-03-15T21:30:27.294Z,30.10
2023-03-15T21:32:55.489Z,29.00
2023-03-15T21:35:27.922Z,31.60
2023-03-15T21:37:56.094Z,29.60
2023-03-15T21:40:25.036Z,33.00
2023-03-15T21:42:53.598Z,25.50
2023-03-15T21:45:23.277Z,28.00
2023-03-15T21:47:57.283Z,30.50
2023-03-15T21:50:26.655Z,27.30
2023-03-15T21:55:24.659Z,33.00
2023-03-15T21:57:52.802Z,34.20
2023-03-15T22:00:23.431Z,29.90
2023-03-15T22:02:55.587Z,28.60
2023-03-15T22:05:25.262Z,31.70
2023-03-15T22:07:54.084Z,29.00
2023-03-15T22:10:22.976Z,28.50
2023-03-15T22:12:57.994Z,30.00
2023-03-15T22:15:27.350Z,28.40
2023-03-15T22:17:55.664Z,28.70
2023-03-15T22:20:26.277Z,29.10
2023-03-15T22:22:54.619Z,28.00
2023-03-15T22:25:23.055Z,28.90
2023-03-15T22:27:51.143Z,27.10
2023-03-15T22:30:19.196Z,28.60
2023-03-15T22:32:50.347Z,28.20
2023-03-15T22:35:18.627Z,32.60
2023-03-15T22:37:47.010Z,29.70
2023-03-15T22:40:15.787Z,28.20
2023-03-15T22:42:44.269Z,25.90
2023-03-15T22:45:17.776Z,28.10
2023-03-15T22:47:46.726Z,25.40
2023-03-15T22:50:14.839Z,31.00
2023-03-15T22:52:45.565Z,28.50
2023-03-15T22:55:13.628Z,26.10
2023-03-15T22:57:42.829Z,30.60
2023-03-15T23:00:14.102Z,30.50
2023-03-15T23:02:43.379Z,30.30
2023-03-15T23:05:12.466Z,30.20
2023-03-15T23:07:40.543Z,26.70
2023-03-15T23:10:10.752Z,27.70
2023-03-15T23:12:40.198Z,27.00
2023-03-15T23:15:09.433Z,27.80
2023-03-15T23:17:38.199Z,30.00
2023-03-15T23:20:07.657Z,30.70
2023-03-15T23:22:37.688Z,25.10
2023-03-15T23:25:06.642Z,30.10
2023-03-15T23:27:35.376Z,26.30
2023-03-15T23:30:06.805Z,27.20
2023-03-15T23:32:36.690Z,27.80
2023-03-15T23:35:14.919Z,29.00
2023-03-15T23:37:45.381Z,28.60
2023-03-15T23:40:15.583Z,27.10
2023-03-15T23:42:45.217Z,27.40
2023-03-15T23:45:15.450Z,29.70
2023-03-15T23:47:47.290Z,23.50
2023-03-15T23:50:16.206Z,27.20
2023-03-15T23:52:44.161Z,30.20
2023-03-15T23:55:12.214Z,29.20
2023-03-15T23:57:41.772Z,30.30
